Arrowsic, Maine
Current Conditions -  °F | °C
As of 11:53 PM on Wednesday 22 Oct 2014 (Local Time) from KIWI Reporting Station
Haze Haze  
Wind Chill: 43°   Ceiling: 1000
Heat Index: 48°   Visibility: 6mi
Dew Point: 45°   Wind: 12mph
Humidity: 89%   Direction: 30°NNE
Pressure: 30"   Gusts: 21mph
Location:  43.8797°N, 69.8408°W
Report Text: KIWI 230353Z AUTO 03010G18KT 6SM BR OVC010 09/07 A3000 RMK AO2 SLP160 T00890072
Loading
Personal Weather Stations






























Interactive Weather Map
Tropical Storm Tracking
New forecast layout! Learn more

10-Day Weather Forecast

Advertisements
Track Severe Weather on mobile